Time;durP1;ratioP1;P1;durP2;ratioP2;P2;SDS_P1;SDS_P2;PMS_P1;PMS_P2;Temp;Humidity;BMP_temperature;BMP_pressure;BME280_temperature;BME280_humidity;BME280_pressure;Samples;Min_cycle;Max_cycle;Signal;HPM_P1;HPM_P2
2023/09/01 00:01:08;;;;;;;6.15;3.35;;;;;;;;;;5082937;28;20048;-80
2023/09/01 00:03:35;;;;;;;5.93;3.67;;;;;;;;;;5095538;28;20104;-80
2023/09/01 00:06:02;;;;;;;6.13;3.70;;;;;;;;;;5097771;28;20059;-81
2023/09/01 00:08:31;;;;;;;9.23;4.50;;;;;;;;;;5107654;28;20040;-80
2023/09/01 00:10:57;;;;;;;7.40;4.03;;;;;;;;;;5107629;28;20040;-80
2023/09/01 00:13:24;;;;;;;7.88;3.92;;;;;;;;;;5104510;28;20067;-78
2023/09/01 00:15:51;;;;;;;6.35;3.08;;;;;;;;;;5091678;28;20120;-81
2023/09/01 00:18:17;;;;;;;6.30;3.40;;;;;;;;;;5090106;28;20048;-81
2023/09/01 00:20:44;;;;;;;5.07;3.08;;;;;;;;;;5089692;28;20143;-82
2023/09/01 00:23:10;;;;;;;4.63;2.80;;;;;;;;;;5085897;28;20047;-82
2023/09/01 00:25:38;;;;;;;5.47;3.05;;;;;;;;;;5097914;28;20044;-82
2023/09/01 00:28:05;;;;;;;5.80;2.63;;;;;;;;;;5089619;28;20048;-81
2023/09/01 00:30:32;;;;;;;5.97;3.25;;;;;;;;;;5091188;28;20052;-82
2023/09/01 00:32:58;;;;;;;4.30;2.92;;;;;;;;;;5089533;28;20064;-82
2023/09/01 00:35:25;;;;;;;5.18;3.25;;;;;;;;;;5100361;28;20048;-82
2023/09/01 00:37:51;;;;;;;6.90;3.70;;;;;;;;;;5099865;28;20063;-82
2023/09/01 00:40:18;;;;;;;6.30;3.47;;;;;;;;;;5099214;28;20498;-81
2023/09/01 00:42:48;;;;;;;5.57;3.33;;;;;;;;;;5098890;28;20059;-82
2023/09/01 00:45:15;;;;;;;6.03;3.78;;;;;;;;;;5082725;28;20259;-82
2023/09/01 00:47:41;;;;;;;5.32;4.00;;;;;;;;;;5087031;28;20531;-82
2023/09/01 00:50:08;;;;;;;5.88;3.97;;;;;;;;;;5094644;28;20055;-81
2023/09/01 00:52:35;;;;;;;6.05;3.65;;;;;;;;;;5101586;28;20170;-82
2023/09/01 00:55:02;;;;;;;5.65;3.75;;;;;;;;;;5100449;28;20070;-81
2023/09/01 00:57:29;;;;;;;5.38;3.65;;;;;;;;;;5101504;28;20056;-81
2023/09/01 00:59:57;;;;;;;7.22;3.80;;;;;;;;;;5100782;28;20050;-82
2023/09/01 01:02:24;;;;;;;6.03;3.78;;;;;;;;;;5101000;28;20048;-82
2023/09/01 01:04:51;;;;;;;6.07;3.80;;;;;;;;;;5099642;28;20048;-82
2023/09/01 01:07:27;;;;;;;6.65;3.78;;;;;;;;;;5097095;28;20056;-82
2023/09/01 01:10:04;;;;;;;5.40;3.85;;;;;;;;;;5097844;28;20052;-82
2023/09/01 01:12:41;;;;;;;6.25;3.90;;;;;;;;;;5098045;28;20044;-82
2023/09/01 01:15:11;;;;;;;5.75;3.78;;;;;;;;;;5097706;28;20490;-82
2023/09/01 01:17:40;;;;;;;6.95;3.80;;;;;;;;;;5082444;28;20045;-82
2023/09/01 01:20:20;;;;;;;7.65;4.68;;;;;;;;;;5076969;28;20041;-81
2023/09/01 01:22:51;;;;;;;7.82;4.55;;;;;;;;;;5096386;28;20048;-80
2023/09/01 01:25:20;;;;;;;9.00;5.65;;;;;;;;;;5089243;28;20063;-82
2023/09/01 01:27:46;;;;;;;8.88;5.22;;;;;;;;;;5078090;28;20060;-82
2023/09/01 01:30:14;;;;;;;9.02;5.32;;;;;;;;;;5090540;28;20059;-82
2023/09/01 01:32:42;;;;;;;9.85;6.53;;;;;;;;;;5098847;28;20072;-82
2023/09/01 01:35:15;;;;;;;8.80;6.20;;;;;;;;;;5099392;28;20059;-82
2023/09/01 01:37:47;;;;;;;8.00;5.03;;;;;;;;;;5099471;28;20051;-82
2023/09/01 01:40:14;;;;;;;7.45;4.90;;;;;;;;;;5093860;28;20103;-80
2023/09/01 01:42:46;;;;;;;7.10;4.75;;;;;;;;;;5085790;28;20037;-81
2023/09/01 01:45:14;;;;;;;7.05;4.20;;;;;;;;;;5095191;28;20068;-82
2023/09/01 01:47:41;;;;;;;6.97;4.53;;;;;;;;;;5101291;28;20083;-81
2023/09/01 01:50:08;;;;;;;6.18;4.35;;;;;;;;;;5088210;28;20045;-82
2023/09/01 01:52:35;;;;;;;6.68;4.03;;;;;;;;;;5077650;28;20060;-82
2023/09/01 01:55:01;;;;;;;6.68;4.18;;;;;;;;;;5087010;28;20048;-81
2023/09/01 01:57:28;;;;;;;7.38;5.07;;;;;;;;;;5097144;28;20079;-82
2023/09/01 01:59:56;;;;;;;5.82;4.20;;;;;;;;;;5097811;28;20082;-82
2023/09/01 02:02:23;;;;;;;5.88;3.65;;;;;;;;;;5077512;28;20056;-82
2023/09/01 02:04:49;;;;;;;6.13;4.03;;;;;;;;;;5078341;28;20048;-82
2023/09/01 02:07:16;;;;;;;6.30;4.22;;;;;;;;;;5078284;28;20071;-81
2023/09/01 02:09:42;;;;;;;6.28;4.22;;;;;;;;;;5086159;28;20104;-79
2023/09/01 02:12:09;;;;;;;6.00;4.20;;;;;;;;;;5107980;28;20064;-81
2023/09/01 02:14:36;;;;;;;5.72;3.80;;;;;;;;;;5095470;28;20047;-80
2023/09/01 02:17:05;;;;;;;6.60;4.28;;;;;;;;;;5088331;28;20040;-81
2023/09/01 02:19:31;;;;;;;7.32;4.57;;;;;;;;;;5088018;28;20052;-80
2023/09/01 02:21:58;;;;;;;5.88;4.50;;;;;;;;;;5087891;28;20056;-82
2023/09/01 02:24:25;;;;;;;5.88;4.22;;;;;;;;;;5078865;28;20132;-79
2023/09/01 02:26:52;;;;;;;7.32;4.15;;;;;;;;;;5077056;28;20434;-81
2023/09/01 02:29:18;;;;;;;7.90;4.45;;;;;;;;;;5090548;28;20054;-82
2023/09/01 02:31:45;;;;;;;6.22;4.57;;;;;;;;;;5076537;28;20098;-82
2023/09/01 02:34:13;;;;;;;6.13;4.57;;;;;;;;;;5076573;28;20530;-82
2023/09/01 02:36:40;;;;;;;7.18;4.60;;;;;;;;;;5075943;28;20644;-83
2023/09/01 02:39:06;;;;;;;6.60;4.25;;;;;;;;;;5077167;28;20047;-81
2023/09/01 02:41:34;;;;;;;6.47;4.55;;;;;;;;;;5094083;28;20491;-83
2023/09/01 02:44:00;;;;;;;6.18;4.18;;;;;;;;;;5076904;28;20068;-83
2023/09/01 02:46:27;;;;;;;7.40;4.38;;;;;;;;;;5086615;28;20047;-82
2023/09/01 02:48:53;;;;;;;6.18;3.95;;;;;;;;;;5095739;28;20056;-81
2023/09/01 02:51:21;;;;;;;5.60;4.00;;;;;;;;;;5097067;28;20062;-82
2023/09/01 02:53:48;;;;;;;6.57;4.10;;;;;;;;;;5092824;28;20048;-81
2023/09/01 02:56:14;;;;;;;6.30;4.32;;;;;;;;;;5088179;28;20048;-81
2023/09/01 02:58:41;;;;;;;6.90;4.63;;;;;;;;;;5086184;28;20507;-80
2023/09/01 03:01:09;;;;;;;6.85;4.00;;;;;;;;;;5084025;28;20139;-82
2023/09/01 03:03:36;;;;;;;6.55;4.03;;;;;;;;;;5087965;28;20107;-81
2023/09/01 03:06:05;;;;;;;6.80;4.00;;;;;;;;;;5088304;28;20550;-82
2023/09/01 03:08:33;;;;;;;5.95;3.60;;;;;;;;;;5095794;28;20511;-81
2023/09/01 03:10:59;;;;;;;7.70;4.40;;;;;;;;;;5095103;28;20050;-81
2023/09/01 03:13:26;;;;;;;7.80;4.25;;;;;;;;;;5088605;28;20043;-82
2023/09/01 03:15:54;;;;;;;7.45;4.50;;;;;;;;;;5085663;28;20040;-82
2023/09/01 03:18:21;;;;;;;5.88;3.85;;;;;;;;;;5077572;28;20131;-82
2023/09/01 03:20:48;;;;;;;6.15;3.70;;;;;;;;;;5078711;28;20107;-82
2023/09/01 03:23:14;;;;;;;8.38;4.10;;;;;;;;;;5073618;28;20462;-81
2023/09/01 03:25:42;;;;;;;8.02;4.18;;;;;;;;;;5072735;28;20040;-82
2023/09/01 03:28:09;;;;;;;5.68;4.03;;;;;;;;;;5072609;28;20497;-83
2023/09/01 03:30:35;;;;;;;6.63;3.45;;;;;;;;;;5081189;28;20487;-83
2023/09/01 03:33:06;;;;;;;6.28;4.20;;;;;;;;;;5073232;28;20499;-83
2023/09/01 03:35:32;;;;;;;6.50;3.97;;;;;;;;;;5073015;28;20648;-82
2023/09/01 03:37:59;;;;;;;6.53;4.18;;;;;;;;;;5086509;28;20055;-81
2023/09/01 03:40:25;;;;;;;5.88;3.78;;;;;;;;;;5093321;28;20417;-81
2023/09/01 03:42:53;;;;;;;6.72;3.97;;;;;;;;;;5093971;28;20047;-82
2023/09/01 03:45:20;;;;;;;5.97;4.10;;;;;;;;;;5092898;28;20050;-82
2023/09/01 03:47:46;;;;;;;6.15;4.10;;;;;;;;;;5095579;28;20052;-82
2023/09/01 03:50:13;;;;;;;5.95;3.67;;;;;;;;;;5098043;28;20044;-82
2023/09/01 03:52:39;;;;;;;5.57;3.78;;;;;;;;;;5096416;28;20446;-82
2023/09/01 03:55:08;;;;;;;7.32;4.40;;;;;;;;;;5095828;28;20040;-81
2023/09/01 03:57:34;;;;;;;6.00;4.03;;;;;;;;;;5084898;28;20052;-81
2023/09/01 04:00:11;;;;;;;6.53;4.00;;;;;;;;;;5076600;28;20514;-81
2023/09/01 04:02:38;;;;;;;7.13;3.72;;;;;;;;;;5076532;28;20166;-80
2023/09/01 04:05:04;;;;;;;6.85;3.40;;;;;;;;;;5077226;28;20100;-82
2023/09/01 04:07:31;;;;;;;6.13;4.13;;;;;;;;;;5077212;28;20048;-79
2023/09/01 04:09:58;;;;;;;5.50;3.63;;;;;;;;;;5074416;28;20108;-82
2023/09/01 04:12:25;;;;;;;5.57;3.88;;;;;;;;;;5075573;28;20504;-82
2023/09/01 04:14:52;;;;;;;5.60;3.92;;;;;;;;;;5077024;28;20044;-82
2023/09/01 04:17:19;;;;;;;5.80;3.78;;;;;;;;;;5076375;28;20052;-82
2023/09/01 04:19:47;;;;;;;6.65;4.10;;;;;;;;;;5085653;28;20054;-81
2023/09/01 04:22:13;;;;;;;5.03;3.90;;;;;;;;;;5097970;28;20321;-81
2023/09/01 04:24:40;;;;;;;6.00;4.20;;;;;;;;;;5101328;28;20048;-82
2023/09/01 04:27:07;;;;;;;9.02;4.82;;;;;;;;;;5085226;28;20079;-82
2023/09/01 04:29:35;;;;;;;7.15;5.10;;;;;;;;;;5076687;28;20071;-83
2023/09/01 04:32:02;;;;;;;6.47;4.53;;;;;;;;;;5091632;28;20040;-82
2023/09/01 04:34:30;;;;;;;7.72;5.20;;;;;;;;;;5084504;28;20193;-83
2023/09/01 04:36:57;;;;;;;6.45;4.78;;;;;;;;;;5097451;28;20093;-83
2023/09/01 04:39:23;;;;;;;6.38;4.43;;;;;;;;;;5081782;28;20040;-82
2023/09/01 04:41:50;;;;;;;7.13;4.82;;;;;;;;;;5079074;28;20052;-82
2023/09/01 04:44:16;;;;;;;7.40;4.97;;;;;;;;;;5077113;28;20049;-82
2023/09/01 04:46:43;;;;;;;6.93;4.97;;;;;;;;;;5090547;28;20044;-81
2023/09/01 04:49:10;;;;;;;6.55;4.78;;;;;;;;;;5080650;28;20056;-83
2023/09/01 04:51:38;;;;;;;6.53;4.47;;;;;;;;;;5080187;28;20090;-83
2023/09/01 04:54:05;;;;;;;7.15;4.80;;;;;;;;;;5088308;28;20049;-83
2023/09/01 04:56:32;;;;;;;6.57;4.68;;;;;;;;;;5107913;28;20078;-81
2023/09/01 04:58:59;;;;;;;6.35;4.07;;;;;;;;;;5102152;28;20052;-80
2023/09/01 05:01:26;;;;;;;6.30;4.53;;;;;;;;;;5093322;28;20072;-79
2023/09/01 05:03:52;;;;;;;7.82;5.10;;;;;;;;;;5098263;28;20041;-80
2023/09/01 05:06:19;;;;;;;6.95;4.72;;;;;;;;;;5099382;28;20046;-82
2023/09/01 05:08:46;;;;;;;7.32;5.00;;;;;;;;;;5098399;28;20052;-82
2023/09/01 05:11:13;;;;;;;7.43;4.68;;;;;;;;;;5092509;28;20051;-82
2023/09/01 05:13:39;;;;;;;8.23;5.20;;;;;;;;;;5080298;28;20147;-81
2023/09/01 05:16:07;;;;;;;7.32;5.13;;;;;;;;;;5088185;28;20048;-81
2023/09/01 05:18:33;;;;;;;8.40;4.95;;;;;;;;;;5089893;28;20117;-82
2023/09/01 05:21:00;;;;;;;6.30;4.18;;;;;;;;;;5088693;28;20048;-82
2023/09/01 05:23:31;;;;;;;7.57;4.78;;;;;;;;;;5096995;28;20054;-80
2023/09/01 05:25:59;;;;;;;7.00;4.68;;;;;;;;;;5097911;28;20139;-82
2023/09/01 05:28:25;;;;;;;8.35;4.55;;;;;;;;;;5088271;28;20052;-81
2023/09/01 05:30:52;;;;;;;7.75;4.63;;;;;;;;;;5081019;28;20131;-82
2023/09/01 05:33:18;;;;;;;6.85;4.68;;;;;;;;;;5078455;28;20135;-82
2023/09/01 05:35:45;;;;;;;6.53;4.20;;;;;;;;;;5080402;28;20246;-81
2023/09/01 05:38:11;;;;;;;6.50;4.60;;;;;;;;;;5081935;28;20046;-82
2023/09/01 05:40:38;;;;;;;6.70;4.18;;;;;;;;;;5080071;28;20051;-82
2023/09/01 05:43:06;;;;;;;7.80;4.45;;;;;;;;;;5084730;28;20052;-82
2023/09/01 05:45:32;;;;;;;6.82;4.65;;;;;;;;;;5080533;28;20503;-81
2023/09/01 05:47:59;;;;;;;7.32;4.32;;;;;;;;;;5064899;28;20578;-82
2023/09/01 05:50:26;;;;;;;6.68;3.95;;;;;;;;;;5080521;28;20052;-81
2023/09/01 05:52:52;;;;;;;4.90;3.25;;;;;;;;;;5083717;28;20051;-82
2023/09/01 05:55:19;;;;;;;5.80;4.05;;;;;;;;;;5074300;28;20067;-82
2023/09/01 05:57:45;;;;;;;5.30;3.22;;;;;;;;;;5084666;28;20051;-83
2023/09/01 06:00:14;;;;;;;5.97;3.80;;;;;;;;;;5072002;28;20430;-81
2023/09/01 06:02:41;;;;;;;7.95;4.13;;;;;;;;;;5074611;28;20052;-82
2023/09/01 06:05:08;;;;;;;8.07;4.28;;;;;;;;;;5071885;28;20513;-81
2023/09/01 06:07:34;;;;;;;5.53;3.70;;;;;;;;;;5078801;28;20136;-82
2023/09/01 06:10:01;;;;;;;6.03;3.75;;;;;;;;;;5091016;28;20131;-82
2023/09/01 06:12:27;;;;;;;5.72;3.15;;;;;;;;;;5085113;28;20495;-82
2023/09/01 06:14:54;;;;;;;5.15;3.40;;;;;;;;;;5086570;28;20048;-81
2023/09/01 06:17:22;;;;;;;5.32;3.08;;;;;;;;;;5086321;28;20230;-81
2023/09/01 06:19:49;;;;;;;5.40;2.65;;;;;;;;;;5091842;28;20047;-82
2023/09/01 06:22:15;;;;;;;4.50;2.88;;;;;;;;;;5096405;28;20040;-80
2023/09/01 06:24:42;;;;;;;4.43;2.60;;;;;;;;;;5101682;28;20124;-81
2023/09/01 06:27:08;;;;;;;4.28;2.38;;;;;;;;;;5093434;28;20070;-80
2023/09/01 06:29:35;;;;;;;5.30;2.63;;;;;;;;;;5092795;28;20104;-81
2023/09/01 06:32:02;;;;;;;5.22;2.38;;;;;;;;;;5088379;28;20048;-83
2023/09/01 06:34:30;;;;;;;3.97;2.40;;;;;;;;;;5092642;28;20040;-81
2023/09/01 06:36:57;;;;;;;4.65;2.50;;;;;;;;;;5092758;28;20100;-81
2023/09/01 06:39:24;;;;;;;3.30;1.85;;;;;;;;;;5086225;28;20098;-82
2023/09/01 06:41:50;;;;;;;4.57;2.25;;;;;;;;;;5068854;28;20040;-81
2023/09/01 06:44:17;;;;;;;3.63;1.80;;;;;;;;;;5067303;28;20051;-81
2023/09/01 06:46:43;;;;;;;3.42;1.90;;;;;;;;;;5078132;28;20470;-81
2023/09/01 06:49:10;;;;;;;4.07;2.58;;;;;;;;;;5079809;28;20048;-81
2023/09/01 06:51:38;;;;;;;3.90;2.10;;;;;;;;;;5078230;28;20048;-81
2023/09/01 06:54:05;;;;;;;4.00;2.35;;;;;;;;;;5082945;28;20120;-82
2023/09/01 06:56:31;;;;;;;3.97;2.00;;;;;;;;;;5083692;28;20063;-82
2023/09/01 06:58:58;;;;;;;4.13;1.80;;;;;;;;;;5074802;28;20049;-82
2023/09/01 07:01:27;;;;;;;3.75;1.90;;;;;;;;;;5091104;28;20048;-81
2023/09/01 07:03:54;;;;;;;4.13;2.17;;;;;;;;;;5075634;28;20127;-81
2023/09/01 07:06:21;;;;;;;4.05;2.10;;;;;;;;;;5083028;28;20055;-83
2023/09/01 07:08:48;;;;;;;5.25;2.25;;;;;;;;;;5096441;28;20032;-82
2023/09/01 07:11:19;;;;;;;5.03;2.17;;;;;;;;;;5100249;28;20111;-82
2023/09/01 07:13:46;;;;;;;;;;;;;;;;;;5094366;28;20051;-83
2023/09/01 07:16:13;;;;;;;4.78;2.00;;;;;;;;;;5093495;28;19962;-83
2023/09/01 07:18:39;;;;;;;4.30;2.05;;;;;;;;;;5068120;28;20044;-81
2023/09/01 07:21:06;;;;;;;5.75;2.03;;;;;;;;;;5080769;28;20514;-82
2023/09/01 07:23:33;;;;;;;3.80;2.08;;;;;;;;;;5077683;28;20040;-81
2023/09/01 07:26:01;;;;;;;3.85;2.13;;;;;;;;;;5085005;28;20044;-83
2023/09/01 07:28:27;;;;;;;4.47;1.90;;;;;;;;;;5085737;28;20051;-82
2023/09/01 07:30:54;;;;;;;3.47;1.83;;;;;;;;;;5081274;28;20044;-83
2023/09/01 07:33:20;;;;;;;4.82;2.40;;;;;;;;;;5071577;28;20070;-81
2023/09/01 07:35:47;;;;;;;3.47;1.52;;;;;;;;;;5076185;28;20050;-81
2023/09/01 07:38:14;;;;;;;3.47;1.80;;;;;;;;;;5082948;28;20042;-82
2023/09/01 07:40:40;;;;;;;3.08;1.65;;;;;;;;;;5090551;28;20040;-82
2023/09/01 07:43:08;;;;;;;3.90;1.60;;;;;;;;;;5080554;28;20051;-82
2023/09/01 07:45:35;;;;;;;3.03;1.60;;;;;;;;;;5084522;28;20063;-83
2023/09/01 07:48:02;;;;;;;4.03;1.70;;;;;;;;;;5090114;28;20053;-81
2023/09/01 07:50:30;;;;;;;3.20;1.65;;;;;;;;;;5080127;28;20091;-81
2023/09/01 07:52:56;;;;;;;3.63;1.48;;;;;;;;;;5081340;28;20054;-81
2023/09/01 07:55:23;;;;;;;3.88;1.80;;;;;;;;;;5081923;28;20062;-82
2023/09/01 07:57:50;;;;;;;5.07;1.90;;;;;;;;;;5073933;28;20051;-81
2023/09/01 08:00:18;;;;;;;4.05;1.77;;;;;;;;;;5087364;22;20744;-83
2023/09/01 08:02:46;;;;;;;4.10;2.00;;;;;;;;;;5077299;28;20554;-83
2023/09/01 08:05:12;;;;;;;3.40;1.80;;;;;;;;;;5083439;28;20044;-83
2023/09/01 08:07:40;;;;;;;3.55;1.65;;;;;;;;;;5093928;28;20048;-84
2023/09/01 08:10:09;;;;;;;3.17;1.70;;;;;;;;;;5079525;28;20094;-84
2023/09/01 08:12:35;;;;;;;3.92;1.70;;;;;;;;;;5073981;28;20075;-84
2023/09/01 08:15:03;;;;;;;4.60;1.65;;;;;;;;;;5067978;28;20078;-85
2023/09/01 08:17:30;;;;;;;3.95;1.80;;;;;;;;;;5072140;28;20101;-85
2023/09/01 08:19:57;;;;;;;4.38;2.08;;;;;;;;;;5068420;28;20047;-88
2023/09/01 08:22:24;;;;;;;4.15;1.70;;;;;;;;;;5085632;28;20041;-83
2023/09/01 08:24:50;;;;;;;5.05;1.75;;;;;;;;;;5081765;28;20143;-85
2023/09/01 08:27:17;;;;;;;3.45;1.60;;;;;;;;;;5079489;28;20522;-85
2023/09/01 08:29:45;;;;;;;5.53;2.42;;;;;;;;;;5076494;28;20041;-84
2023/09/01 08:32:11;;;;;;;4.05;1.65;;;;;;;;;;5083619;28;20052;-85
2023/09/01 08:34:39;;;;;;;2.92;1.80;;;;;;;;;;5088491;28;20041;-88
2023/09/01 08:37:06;;;;;;;4.07;1.88;;;;;;;;;;5079212;28;20156;-85
2023/09/01 08:39:33;;;;;;;3.25;1.58;;;;;;;;;;5079157;28;20059;-85
2023/09/01 08:42:00;;;;;;;4.97;2.17;;;;;;;;;;5077266;28;20090;-86
2023/09/01 08:44:28;;;;;;;8.85;4.78;;;;;;;;;;5085992;28;20509;-86
2023/09/01 08:46:57;;;;;;;4.28;1.77;;;;;;;;;;5082332;28;20071;-88
2023/09/01 08:49:26;;;;;;;3.30;1.73;;;;;;;;;;5073389;28;20131;-86
2023/09/01 08:51:57;;;;;;;6.13;2.80;;;;;;;;;;5073377;28;20064;-85
2023/09/01 08:54:24;;;;;;;5.13;2.70;;;;;;;;;;5084505;28;20422;-83
2023/09/01 08:56:50;;;;;;;5.68;2.50;;;;;;;;;;5084100;28;20300;-85
2023/09/01 08:59:17;;;;;;;5.22;2.42;;;;;;;;;;5081888;28;20079;-86
2023/09/01 09:01:44;;;;;;;4.13;1.77;;;;;;;;;;5075113;28;20135;-83
2023/09/01 09:04:11;;;;;;;4.20;2.08;;;;;;;;;;5076471;28;20336;-83
2023/09/01 09:06:39;;;;;;;3.15;1.67;;;;;;;;;;5076745;28;20040;-82
2023/09/01 09:09:13;;;;;;;3.85;1.58;;;;;;;;;;5068173;28;20049;-82
2023/09/01 09:11:41;;;;;;;3.15;1.35;;;;;;;;;;5067168;28;20131;-82
2023/09/01 09:14:08;;;;;;;3.58;1.50;;;;;;;;;;5079113;28;20048;-82
2023/09/01 09:16:36;;;;;;;4.28;1.92;;;;;;;;;;5074812;28;20083;-82
2023/09/01 09:19:09;;;;;;;5.03;1.70;;;;;;;;;;5073933;28;20403;-82
2023/09/01 09:21:36;;;;;;;4.45;1.95;;;;;;;;;;5081363;28;20055;-82
2023/09/01 09:24:03;;;;;;;2.90;1.67;;;;;;;;;;5081004;28;20059;-82
2023/09/01 09:26:32;;;;;;;2.50;1.38;;;;;;;;;;5083889;28;20063;-82
2023/09/01 09:29:06;;;;;;;2.92;1.55;;;;;;;;;;5084195;28;20411;-83
2023/09/01 09:31:36;;;;;;;2.92;1.40;;;;;;;;;;5087889;28;20040;-83
2023/09/01 09:34:14;;;;;;;3.60;1.40;;;;;;;;;;5068517;28;20147;-83
2023/09/01 09:36:42;;;;;;;3.53;1.75;;;;;;;;;;5079124;28;20048;-84
2023/09/01 09:39:21;;;;;;;3.38;1.90;;;;;;;;;;5092249;28;20105;-84
2023/09/01 09:41:50;;;;;;;3.60;1.65;;;;;;;;;;5080320;28;20048;-83
2023/09/01 09:44:28;;;;;;;3.05;1.60;;;;;;;;;;5081263;28;20040;-83
2023/09/01 09:46:55;;;;;;;3.00;1.33;;;;;;;;;;5092795;28;20047;-83
2023/09/01 09:49:23;;;;;;;2.83;1.60;;;;;;;;;;5089736;28;20078;-85
2023/09/01 09:51:51;;;;;;;2.92;1.40;;;;;;;;;;5089434;28;20048;-82
2023/09/01 09:54:21;;;;;;;3.13;1.30;;;;;;;;;;5075479;28;20071;-81
2023/09/01 09:56:51;;;;;;;3.95;1.15;;;;;;;;;;5082118;28;20036;-84
2023/09/01 09:59:25;;;;;;;3.42;1.45;;;;;;;;;;5070083;28;20127;-82
2023/09/01 10:01:52;;;;;;;4.80;1.70;;;;;;;;;;5073946;28;20048;-84
2023/09/01 10:04:20;;;;;;;3.03;1.42;;;;;;;;;;5071605;28;20047;-84
2023/09/01 10:06:46;;;;;;;3.72;1.40;;;;;;;;;;5074023;28;20049;-83
2023/09/01 10:09:16;;;;;;;3.00;1.20;;;;;;;;;;5070682;28;20048;-83
2023/09/01 10:11:47;;;;;;;4.13;1.30;;;;;;;;;;5078854;28;20044;-84
2023/09/01 10:14:16;;;;;;;2.60;1.10;;;;;;;;;;5076476;28;20048;-83
2023/09/01 10:16:44;;;;;;;3.22;1.50;;;;;;;;;;5074259;28;20489;-83
2023/09/01 10:19:13;;;;;;;4.13;1.58;;;;;;;;;;5070635;28;20075;-83
2023/09/01 10:21:41;;;;;;;3.78;1.50;;;;;;;;;;5073962;28;20139;-83
2023/09/01 10:24:13;;;;;;;3.97;1.60;;;;;;;;;;5072438;28;20052;-85
2023/09/01 10:26:42;;;;;;;3.08;1.20;;;;;;;;;;5073516;28;20044;-81
2023/09/01 10:29:08;;;;;;;2.70;1.27;;;;;;;;;;5080694;28;20059;-86
2023/09/01 10:31:36;;;;;;;3.83;1.50;;;;;;;;;;5083170;28;20040;-84
2023/09/01 10:34:13;;;;;;;3.90;1.58;;;;;;;;;;5083264;28;20045;-85
2023/09/01 10:36:41;;;;;;;2.72;1.40;;;;;;;;;;5069378;28;20044;-83
2023/09/01 10:39:23;;;;;;;3.60;1.50;;;;;;;;;;5070422;28;20059;-82
2023/09/01 10:41:59;;;;;;;3.30;1.45;;;;;;;;;;5068021;28;20051;-85
2023/09/01 10:45:08;;;;;;;3.95;1.45;;;;;;;;;;5077111;28;20499;-85
2023/09/01 10:47:46;;;;;;;4.13;1.42;;;;;;;;;;5075616;28;20072;-86
2023/09/01 10:50:13;;;;;;;3.72;1.48;;;;;;;;;;5087130;28;21350;-84
2023/09/01 10:52:42;;;;;;;2.35;1.25;;;;;;;;;;5091713;28;20111;-85
2023/09/01 10:55:09;;;;;;;3.13;1.23;;;;;;;;;;5086912;28;20040;-85
2023/09/01 10:57:40;;;;;;;3.92;1.10;;;;;;;;;;5088728;28;20054;-84
2023/09/01 11:00:25;;;;;;;3.55;1.20;;;;;;;;;;5086241;28;20079;-84
2023/09/01 11:02:54;;;;;;;2.45;1.17;;;;;;;;;;5083079;28;20053;-85
2023/09/01 11:05:36;;;;;;;2.70;1.20;;;;;;;;;;5073318;28;20048;-84
2023/09/01 11:08:17;;;;;;;3.28;1.55;;;;;;;;;;5079644;28;20041;-85
2023/09/01 11:10:44;;;;;;;2.22;1.02;;;;;;;;;;5069187;28;20080;-80
2023/09/01 11:13:16;;;;;;;2.70;1.30;;;;;;;;;;5066282;28;20569;-80
2023/09/01 11:15:44;;;;;;;2.53;1.27;;;;;;;;;;5073182;28;20044;-80
2023/09/01 11:18:17;;;;;;;2.55;1.10;;;;;;;;;;5067736;28;20171;-80
2023/09/01 11:20:45;;;;;;;4.28;1.40;;;;;;;;;;5070076;28;20391;-80
2023/09/01 11:23:11;;;;;;;3.47;1.55;;;;;;;;;;5073466;28;20056;-80
2023/09/01 11:25:38;;;;;;;3.25;1.33;;;;;;;;;;5072055;28;20499;-79
2023/09/01 11:28:06;;;;;;;2.83;1.33;;;;;;;;;;5074207;28;20044;-80
2023/09/01 11:30:32;;;;;;;4.32;1.90;;;;;;;;;;5069851;28;20048;-80
2023/09/01 11:33:00;;;;;;;3.08;1.25;;;;;;;;;;5065854;28;20068;-80
2023/09/01 11:35:29;;;;;;;4.25;1.50;;;;;;;;;;5064983;28;20095;-80
2023/09/01 11:37:58;;;;;;;2.92;1.30;;;;;;;;;;5070408;28;20036;-80
2023/09/01 11:40:26;;;;;;;3.92;1.73;;;;;;;;;;5070079;28;20044;-80
2023/09/01 11:42:53;;;;;;;3.97;1.70;;;;;;;;;;5067065;28;20595;-80
2023/09/01 11:45:20;;;;;;;2.65;1.30;;;;;;;;;;5070428;28;20041;-80
2023/09/01 11:47:51;;;;;;;2.15;1.00;;;;;;;;;;5070798;28;20547;-81
2023/09/01 11:50:18;;;;;;;4.05;1.30;;;;;;;;;;5066493;28;20052;-80
2023/09/01 11:52:55;;;;;;;2.72;1.30;;;;;;;;;;5068120;28;20499;-81
2023/09/01 11:55:36;;;;;;;2.72;1.30;;;;;;;;;;5067257;28;20040;-83
2023/09/01 11:58:03;;;;;;;3.33;1.33;;;;;;;;;;5066756;28;20522;-79
2023/09/01 12:00:35;;;;;;;3.33;1.27;;;;;;;;;;5066828;28;20046;-79
2023/09/01 12:03:03;;;;;;;2.72;1.35;;;;;;;;;;5074006;28;20060;-80
2023/09/01 12:05:31;;;;;;;3.25;1.70;;;;;;;;;;5067547;28;20048;-80
2023/09/01 12:08:00;;;;;;;2.03;1.40;;;;;;;;;;5065474;28;20064;-80
2023/09/01 12:10:27;;;;;;;3.43;1.43;;;;;;;;;;5080021;28;20041;-80
2023/09/01 12:13:02;;;;;;;3.17;1.15;;;;;;;;;;5071280;28;20336;-80
2023/09/01 12:15:29;;;;;;;2.55;1.20;;;;;;;;;;5072602;28;20052;-79
2023/09/01 12:17:56;;;;;;;3.75;1.23;;;;;;;;;;5067856;28;20128;-80
2023/09/01 12:20:22;;;;;;;3.75;1.35;;;;;;;;;;5081901;28;20051;-79
2023/09/01 12:22:49;;;;;;;2.85;1.40;;;;;;;;;;5080509;28;20460;-79
2023/09/01 12:25:17;;;;;;;2.70;1.40;;;;;;;;;;5079180;28;20048;-80
2023/09/01 12:27:44;;;;;;;2.88;1.30;;;;;;;;;;5082385;28;20048;-79
2023/09/01 12:30:11;;;;;;;2.80;1.20;;;;;;;;;;5080330;28;20423;-79
2023/09/01 12:32:38;;;;;;;3.08;1.20;;;;;;;;;;5078690;28;20044;-79
2023/09/01 12:35:05;;;;;;;3.80;1.48;;;;;;;;;;5079338;28;20058;-79
2023/09/01 12:37:32;;;;;;;2.75;1.30;;;;;;;;;;5079468;28;20080;-78
2023/09/01 12:39:58;;;;;;;2.42;1.35;;;;;;;;;;5077262;28;20072;-82
2023/09/01 12:42:26;;;;;;;2.75;1.40;;;;;;;;;;5082740;28;20044;-79
2023/09/01 12:44:53;;;;;;;3.13;1.20;;;;;;;;;;5070652;28;20048;-85
2023/09/01 12:47:19;;;;;;;2.42;1.30;;;;;;;;;;5068603;28;20371;-83
2023/09/01 12:49:48;;;;;;;3.25;1.77;;;;;;;;;;5072592;28;20041;-83
2023/09/01 12:52:15;;;;;;;9.32;5.68;;;;;;;;;;5085001;28;20055;-79
2023/09/01 12:54:42;;;;;;;9.93;6.05;;;;;;;;;;5072388;28;20044;-79
2023/09/01 12:57:08;;;;;;;6.00;3.25;;;;;;;;;;5090144;28;20048;-79
2023/09/01 12:59:36;;;;;;;6.53;3.05;;;;;;;;;;5083365;28;20044;-79
2023/09/01 13:02:03;;;;;;;5.88;3.33;;;;;;;;;;5082149;28;20068;-79
2023/09/01 13:04:31;;;;;;;3.80;1.80;;;;;;;;;;5085620;28;20044;-79
2023/09/01 13:06:58;;;;;;;6.13;2.65;;;;;;;;;;5083114;28;20048;-79
2023/09/01 13:09:25;;;;;;;4.50;2.47;;;;;;;;;;5088832;28;20498;-79
2023/09/01 13:11:51;;;;;;;6.35;3.38;;;;;;;;;;5081585;28;20045;-80
2023/09/01 13:14:18;;;;;;;6.60;3.22;;;;;;;;;;5083102;28;20063;-80
2023/09/01 13:16:45;;;;;;;5.88;2.92;;;;;;;;;;5082156;28;20037;-79
2023/09/01 13:19:12;;;;;;;7.28;2.95;;;;;;;;;;5080788;28;20052;-80
2023/09/01 13:21:38;;;;;;;3.70;1.80;;;;;;;;;;5080298;28;20045;-79
2023/09/01 13:24:06;;;;;;;6.30;2.40;;;;;;;;;;5082720;28;20044;-80
2023/09/01 13:26:32;;;;;;;4.07;2.03;;;;;;;;;;5088306;28;20070;-80
2023/09/01 13:28:59;;;;;;;3.10;1.48;;;;;;;;;;5068175;28;20506;-80
2023/09/01 13:31:26;;;;;;;3.78;1.80;;;;;;;;;;5069810;28;20051;-78
2023/09/01 13:33:54;;;;;;;3.92;2.00;;;;;;;;;;5073798;28;20050;-79
2023/09/01 13:36:20;;;;;;;5.10;2.30;;;;;;;;;;5066514;28;20506;-80
2023/09/01 13:38:49;;;;;;;4.85;1.73;;;;;;;;;;5070380;28;20126;-79
2023/09/01 13:41:15;;;;;;;4.40;1.83;;;;;;;;;;5069827;28;20037;-79
2023/09/01 13:43:42;;;;;;;3.90;1.77;;;;;;;;;;5075105;28;20396;-79
2023/09/01 13:46:19;;;;;;;2.15;1.15;;;;;;;;;;5070739;28;20332;-80
2023/09/01 13:48:45;;;;;;;3.53;1.27;;;;;;;;;;5078070;28;20061;-81
2023/09/01 13:51:13;;;;;;;3.35;1.60;;;;;;;;;;5082660;28;20071;-80
2023/09/01 13:53:40;;;;;;;5.35;2.47;;;;;;;;;;5079055;28;20071;-81
2023/09/01 13:56:06;;;;;;;4.60;1.50;;;;;;;;;;5099687;28;20044;-79
2023/09/01 13:58:33;;;;;;;3.80;1.58;;;;;;;;;;5088223;28;20052;-79
2023/09/01 14:01:04;;;;;;;3.78;1.70;;;;;;;;;;5098001;22;20579;-82
2023/09/01 14:03:31;;;;;;;2.30;1.30;;;;;;;;;;5087584;28;20109;-82
2023/09/01 14:05:59;;;;;;;4.47;2.00;;;;;;;;;;5091607;28;20040;-82
2023/09/01 14:08:34;;;;;;;2.15;1.30;;;;;;;;;;5090048;28;20063;-83
2023/09/01 14:11:01;;;;;;;3.80;1.73;;;;;;;;;;5082113;28;20464;-83
2023/09/01 14:13:35;;;;;;;3.17;1.33;;;;;;;;;;5079296;28;20542;-83
2023/09/01 14:16:05;;;;;;;3.40;1.77;;;;;;;;;;5074734;28;20502;-82
2023/09/01 14:18:34;;;;;;;5.88;1.85;;;;;;;;;;5064340;28;20133;-82
2023/09/01 14:21:03;;;;;;;4.15;1.73;;;;;;;;;;5060632;28;20131;-82
2023/09/01 14:23:31;;;;;;;4.68;2.35;;;;;;;;;;5070352;28;20419;-82
2023/09/01 14:25:59;;;;;;;2.40;1.20;;;;;;;;;;5065207;28;20099;-82
2023/09/01 14:28:26;;;;;;;3.10;1.60;;;;;;;;;;5068779;28;20127;-82
2023/09/01 14:30:52;;;;;;;3.22;1.45;;;;;;;;;;5066517;28;20419;-82
2023/09/01 14:33:23;;;;;;;2.80;1.40;;;;;;;;;;5064154;28;20122;-83
2023/09/01 14:35:53;;;;;;;4.65;1.73;;;;;;;;;;5070091;28;20142;-82
2023/09/01 14:38:25;;;;;;;3.00;1.55;;;;;;;;;;5063668;28;20104;-83
2023/09/01 14:40:53;;;;;;;3.58;1.52;;;;;;;;;;5071385;28;20055;-83
2023/09/01 14:43:27;;;;;;;3.40;1.60;;;;;;;;;;5072159;28;20071;-82
2023/09/01 14:45:54;;;;;;;2.85;1.23;;;;;;;;;;5082287;28;20453;-83
2023/09/01 14:48:20;;;;;;;4.28;1.42;;;;;;;;;;5068931;28;20482;-83